createdAt,value
2023-01-26T00:01:31.272Z,99.85
2023-01-26T00:03:58.523Z,99.81
2023-01-26T00:06:26.278Z,99.91
2023-01-26T00:08:59.596Z,99.87
2023-01-26T00:11:29.357Z,100.00
2023-01-26T00:13:59.938Z,99.86
2023-01-26T00:16:28.402Z,99.88
2023-01-26T00:18:55.547Z,99.79
2023-01-26T00:21:24.932Z,99.81
2023-01-26T00:23:53.405Z,100.00
2023-01-26T00:26:24.933Z,99.62
2023-01-26T00:28:53.226Z,99.97
2023-01-26T00:31:26.712Z,100.00
2023-01-26T00:33:55.625Z,100.00
2023-01-26T00:36:23.162Z,99.99
2023-01-26T00:38:50.231Z,99.95
2023-01-26T00:41:35.775Z,99.93
2023-01-26T00:44:02.862Z,99.77
2023-01-26T00:46:30.151Z,99.70
2023-01-26T00:48:57.155Z,99.66
2023-01-26T00:51:24.125Z,99.71
2023-01-26T00:53:51.087Z,99.57
2023-01-26T00:56:18.069Z,99.67
2023-01-26T00:58:45.704Z,99.53
2023-01-26T01:01:12.890Z,99.81
2023-01-26T01:03:39.791Z,99.90
2023-01-26T01:06:06.756Z,99.96
2023-01-26T01:08:33.787Z,99.66
2023-01-26T01:11:10.715Z,99.65
2023-01-26T01:13:38.807Z,99.59
2023-01-26T01:16:12.563Z,99.32
2023-01-26T01:18:39.797Z,99.41
2023-01-26T01:21:13.654Z,99.32
2023-01-26T01:23:41.428Z,99.15
2023-01-26T01:26:09.648Z,99.23
2023-01-26T01:28:37.901Z,99.39
2023-01-26T01:31:06.913Z,99.31
2023-01-26T01:33:33.976Z,99.05
2023-01-26T01:36:07.769Z,99.33
2023-01-26T01:38:35.566Z,98.90
2023-01-26T01:41:02.688Z,99.00
2023-01-26T01:43:30.205Z,99.20
2023-01-26T01:45:59.231Z,98.93
2023-01-26T01:48:43.438Z,99.05
2023-01-26T01:51:31.587Z,99.08
2023-01-26T01:54:04.719Z,99.20
2023-01-26T01:56:33.621Z,99.17
2023-01-26T01:59:03.017Z,98.90
2023-01-26T02:01:30.452Z,98.96
2023-01-26T02:04:02.336Z,99.13
2023-01-26T02:06:39.804Z,99.18
2023-01-26T02:09:07.460Z,99.45
2023-01-26T02:11:41.379Z,99.34
2023-01-26T02:14:12.175Z,99.26
2023-01-26T02:16:40.092Z,99.18
2023-01-26T02:19:29.078Z,99.54
2023-01-26T02:22:00.663Z,99.50
2023-01-26T02:24:34.393Z,99.14
2023-01-26T02:27:02.184Z,99.18
2023-01-26T02:29:29.259Z,99.06
2023-01-26T02:31:56.299Z,98.98
2023-01-26T02:34:25.252Z,99.11
2023-01-26T02:37:00.015Z,99.15
2023-01-26T02:40:00.633Z,99.31
2023-01-26T02:42:41.672Z,99.54
2023-01-26T02:45:12.981Z,99.31
2023-01-26T02:47:40.551Z,99.63
2023-01-26T02:50:11.346Z,99.63
2023-01-26T02:52:38.718Z,99.71
2023-01-26T02:55:22.408Z,99.72
2023-01-26T02:58:10.736Z,99.47
2023-01-26T03:00:37.972Z,99.38
2023-01-26T03:03:15.863Z,99.62
2023-01-26T03:05:43.174Z,99.64
2023-01-26T03:08:10.209Z,99.47
2023-01-26T03:10:37.799Z,99.44
2023-01-26T03:13:05.018Z,99.82
2023-01-26T03:15:42.764Z,99.70
2023-01-26T03:18:34.558Z,99.52
2023-01-26T03:21:24.072Z,99.78
2023-01-26T03:24:09.940Z,99.73
2023-01-26T03:26:55.931Z,99.64
2023-01-26T03:29:23.037Z,99.49
2023-01-26T03:31:50.214Z,99.50
2023-01-26T03:34:17.195Z,99.60
2023-01-26T03:36:44.171Z,99.62
2023-01-26T03:39:31.116Z,99.51
2023-01-26T03:42:17.072Z,99.36
2023-01-26T03:45:02.564Z,99.31
2023-01-26T03:47:50.539Z,99.18
2023-01-26T03:50:36.090Z,99.16
2023-01-26T03:53:21.544Z,99.21
2023-01-26T03:56:07.095Z,99.12
2023-01-26T03:58:34.035Z,99.16
2023-01-26T04:01:01.059Z,99.37
2023-01-26T04:03:46.438Z,99.35
2023-01-26T04:06:31.855Z,99.30
2023-01-26T04:08:58.814Z,99.43
2023-01-26T04:11:25.769Z,99.31
2023-01-26T04:14:11.317Z,99.30
2023-01-26T04:16:56.972Z,99.26
2023-01-26T04:19:42.570Z,99.25
2023-01-26T04:22:09.522Z,99.32
2023-01-26T04:24:36.486Z,99.04
2023-01-26T04:27:03.490Z,98.88
2023-01-26T04:29:30.296Z,98.96
2023-01-26T04:31:57.248Z,99.17
2023-01-26T04:34:24.223Z,99.32
2023-01-26T04:36:51.197Z,99.34
2023-01-26T04:39:18.215Z,99.05
2023-01-26T04:41:45.873Z,99.14
2023-01-26T04:44:12.864Z,99.10
2023-01-26T04:46:39.770Z,98.88
2023-01-26T04:49:06.756Z,98.72
2023-01-26T04:51:33.717Z,98.59
2023-01-26T04:54:00.725Z,98.60
2023-01-26T04:56:31.718Z,98.47
2023-01-26T04:59:05.266Z,98.54
2023-01-26T05:01:32.667Z,98.71
2023-01-26T05:04:02.970Z,98.34
2023-01-26T05:06:30.631Z,98.46
2023-01-26T05:08:58.561Z,98.43
2023-01-26T05:11:25.824Z,98.01
2023-01-26T05:13:52.766Z,97.90
2023-01-26T05:16:19.888Z,97.95
2023-01-26T05:18:47.100Z,98.35
2023-01-26T05:21:14.239Z,98.00
2023-01-26T05:23:41.323Z,98.06
2023-01-26T05:26:08.930Z,97.94
2023-01-26T05:28:36.537Z,97.75
2023-01-26T05:31:03.824Z,97.79
2023-01-26T05:33:31.565Z,97.51
2023-01-26T05:35:58.801Z,97.71
2023-01-26T05:38:26.409Z,97.70
2023-01-26T05:40:53.362Z,97.68
2023-01-26T05:43:20.275Z,97.51
2023-01-26T05:45:47.347Z,97.69
2023-01-26T05:48:14.349Z,97.61
2023-01-26T05:50:41.357Z,97.56
2023-01-26T05:53:08.304Z,97.50
2023-01-26T05:55:35.328Z,97.57
2023-01-26T05:58:02.331Z,97.52
2023-01-26T06:00:29.291Z,97.48
2023-01-26T06:02:56.311Z,97.49
2023-01-26T06:05:23.292Z,97.16
2023-01-26T06:07:50.233Z,97.33
2023-01-26T06:10:17.363Z,97.06
2023-01-26T06:12:44.407Z,97.41
2023-01-26T06:15:12.689Z,97.60
2023-01-26T06:17:46.879Z,97.69
2023-01-26T06:20:14.808Z,97.98
2023-01-26T06:22:41.812Z,97.90
2023-01-26T06:25:09.570Z,97.49
2023-01-26T06:27:36.457Z,97.49
2023-01-26T06:30:05.518Z,97.66
2023-01-26T06:32:32.475Z,97.65
2023-01-26T06:34:59.433Z,97.68
2023-01-26T06:37:26.381Z,97.97
2023-01-26T06:39:53.317Z,97.98
2023-01-26T06:42:20.255Z,98.05
2023-01-26T06:44:47.245Z,97.79
2023-01-26T06:47:14.960Z,97.73
2023-01-26T06:49:41.903Z,97.54
2023-01-26T06:52:32.087Z,97.59
2023-01-26T06:55:00.505Z,97.48
2023-01-26T06:57:27.611Z,97.80
2023-01-26T06:59:56.135Z,97.66
2023-01-26T07:02:23.363Z,97.68
2023-01-26T07:04:51.176Z,97.63
2023-01-26T07:07:18.162Z,97.67
2023-01-26T07:09:45.140Z,97.50
2023-01-26T07:12:12.467Z,97.46
2023-01-26T07:14:39.391Z,97.25
2023-01-26T07:17:06.263Z,97.25
2023-01-26T07:19:33.958Z,97.16
2023-01-26T07:22:01.735Z,97.09
2023-01-26T07:24:29.164Z,96.91
2023-01-26T07:26:56.722Z,97.10
2023-01-26T07:29:23.847Z,97.43
2023-01-26T07:31:51.076Z,97.39
2023-01-26T07:34:18.063Z,97.46
2023-01-26T07:36:45.582Z,97.31
2023-01-26T07:39:12.550Z,97.66
2023-01-26T07:41:39.583Z,97.53
2023-01-26T07:44:10.574Z,97.63
2023-01-26T07:46:37.735Z,97.53
2023-01-26T07:49:04.733Z,97.50
2023-01-26T07:51:31.722Z,97.47
2023-01-26T07:53:59.110Z,97.41
2023-01-26T07:56:26.435Z,97.64
2023-01-26T07:58:54.852Z,97.43
2023-01-26T08:01:23.008Z,97.72
2023-01-26T08:03:52.158Z,97.35
2023-01-26T08:06:20.360Z,97.37
2023-01-26T08:08:53.606Z,97.66
2023-01-26T08:11:23.423Z,97.62
2023-01-26T08:13:50.458Z,97.61
2023-01-26T08:16:18.082Z,97.65
2023-01-26T08:18:46.351Z,97.63
2023-01-26T08:21:15.971Z,97.66
2023-01-26T08:23:43.187Z,97.70
2023-01-26T08:26:13.354Z,97.73
2023-01-26T08:28:41.373Z,97.78
2023-01-26T08:31:12.388Z,97.46
2023-01-26T08:33:42.621Z,97.50
2023-01-26T08:36:13.419Z,97.40
2023-01-26T08:38:42.120Z,97.43
2023-01-26T08:41:09.905Z,97.36
2023-01-26T08:43:37.079Z,97.27
2023-01-26T08:46:05.226Z,97.37
2023-01-26T08:48:32.462Z,97.43
2023-01-26T08:51:02.603Z,97.39
2023-01-26T08:53:34.725Z,97.35
2023-01-26T08:56:03.991Z,97.20
2023-01-26T08:58:31.591Z,97.35
2023-01-26T09:00:58.694Z,97.22
2023-01-26T09:03:26.099Z,97.05
2023-01-26T09:05:53.059Z,97.18
2023-01-26T09:08:20.028Z,97.10
2023-01-26T09:10:47.069Z,97.04
2023-01-26T09:13:14.007Z,96.76
2023-01-26T09:15:41.061Z,96.83
2023-01-26T09:18:08.011Z,96.84
2023-01-26T09:20:35.017Z,96.79
2023-01-26T09:23:02.021Z,97.11
2023-01-26T09:25:29.147Z,96.97
2023-01-26T09:27:56.397Z,96.84
2023-01-26T09:30:25.008Z,96.55
2023-01-26T09:32:52.256Z,96.39
2023-01-26T09:35:19.505Z,96.51
2023-01-26T09:37:46.525Z,96.60
2023-01-26T09:40:24.474Z,96.38
2023-01-26T09:43:44.001Z,96.09
2023-01-26T09:46:42.879Z,96.07
2023-01-26T09:49:32.137Z,96.15
2023-01-26T09:52:04.758Z,96.14
2023-01-26T09:55:03.105Z,95.94
2023-01-26T09:57:44.555Z,96.00
2023-01-26T10:00:28.741Z,96.09
2023-01-26T10:03:02.421Z,96.06
2023-01-26T10:05:41.775Z,96.16
2023-01-26T10:08:13.725Z,95.79
2023-01-26T10:11:12.023Z,95.88
2023-01-26T10:13:39.111Z,96.02
2023-01-26T10:16:10.604Z,95.87
2023-01-26T10:18:59.310Z,95.91
2023-01-26T10:21:34.168Z,95.76
2023-01-26T10:24:02.993Z,95.69
2023-01-26T10:26:34.363Z,95.80
2023-01-26T10:29:02.156Z,95.49
2023-01-26T10:31:32.764Z,95.72
2023-01-26T10:34:15.704Z,95.85
2023-01-26T10:36:46.318Z,95.68
2023-01-26T10:39:18.075Z,96.04
2023-01-26T10:42:04.219Z,95.44
2023-01-26T10:44:37.757Z,95.48
2023-01-26T10:47:25.680Z,95.63
2023-01-26T10:49:52.727Z,95.86
2023-01-26T10:52:23.510Z,95.91
2023-01-26T10:55:09.907Z,95.66
2023-01-26T10:57:41.996Z,95.60
2023-01-26T11:00:32.829Z,95.71
2023-01-26T11:03:19.279Z,95.50
2023-01-26T11:05:49.145Z,95.49
2023-01-26T11:08:37.068Z,95.44
2023-01-26T11:11:07.750Z,95.35
2023-01-26T11:13:34.691Z,95.31
2023-01-26T11:16:24.430Z,95.02
2023-01-26T11:19:13.613Z,95.33
2023-01-26T11:22:07.385Z,95.43
2023-01-26T11:24:42.631Z,95.49
2023-01-26T11:27:21.581Z,95.41
2023-01-26T11:30:34.530Z,95.53
2023-01-26T11:33:18.190Z,95.54
2023-01-26T11:36:06.091Z,95.51
2023-01-26T11:38:49.673Z,95.53
2023-01-26T11:41:46.825Z,95.09
2023-01-26T11:44:43.284Z,94.86
2023-01-26T11:47:12.891Z,94.97
2023-01-26T11:49:57.549Z,94.91
2023-01-26T11:53:08.848Z,95.05
2023-01-26T11:55:56.790Z,95.07
2023-01-26T11:58:46.849Z,95.08
2023-01-26T12:01:29.023Z,95.08
2023-01-26T12:03:57.077Z,94.93
2023-01-26T12:06:44.082Z,95.11
2023-01-26T12:09:38.615Z,94.98
2023-01-26T12:12:22.765Z,94.95
2023-01-26T12:15:13.289Z,94.74
2023-01-26T12:18:04.094Z,94.69
2023-01-26T12:21:03.322Z,94.66
2023-01-26T12:24:02.927Z,94.51
2023-01-26T12:26:37.452Z,94.72
2023-01-26T12:29:53.973Z,94.78
2023-01-26T12:32:22.644Z,94.76
2023-01-26T12:34:49.774Z,94.77
2023-01-26T12:37:32.610Z,94.89
2023-01-26T12:40:09.276Z,94.88
2023-01-26T12:43:12.974Z,94.85
2023-01-26T12:45:42.663Z,94.93
2023-01-26T12:48:50.879Z,94.66
2023-01-26T12:51:33.738Z,94.74
2023-01-26T12:54:09.312Z,94.78
2023-01-26T12:56:52.623Z,95.05
2023-01-26T12:59:47.630Z,94.90
2023-01-26T13:02:26.885Z,94.81
2023-01-26T13:04:54.335Z,94.85
2023-01-26T13:07:37.770Z,94.59
2023-01-26T13:10:18.005Z,94.87
2023-01-26T13:12:49.192Z,94.85
2023-01-26T13:15:20.190Z,94.75
2023-01-26T13:17:59.260Z,94.39
2023-01-26T13:20:46.040Z,94.00
2023-01-26T13:23:28.425Z,93.91
2023-01-26T13:26:33.461Z,94.07
2023-01-26T13:29:25.148Z,93.91
2023-01-26T13:31:54.981Z,93.85
2023-01-26T13:34:43.107Z,93.75
2023-01-26T13:37:17.502Z,93.69
2023-01-26T13:39:52.827Z,93.54
2023-01-26T13:42:28.449Z,93.57
2023-01-26T13:45:04.759Z,93.51
2023-01-26T13:47:43.912Z,93.46
2023-01-26T13:50:34.669Z,93.31
2023-01-26T13:53:02.168Z,93.41
2023-01-26T13:55:33.508Z,93.17
2023-01-26T13:58:16.243Z,92.94
2023-01-26T14:00:43.644Z,93.10
2023-01-26T14:03:23.635Z,93.23
2023-01-26T14:06:09.088Z,92.83
2023-01-26T14:08:37.898Z,92.99
2023-01-26T14:11:21.098Z,92.95
2023-01-26T14:13:56.073Z,93.02
2023-01-26T14:16:36.162Z,92.92
2023-01-26T14:19:17.401Z,92.55
2023-01-26T14:21:57.141Z,92.92
2023-01-26T14:24:30.217Z,92.34
2023-01-26T14:26:57.447Z,92.58
2023-01-26T14:29:30.341Z,92.54
2023-01-26T14:31:59.761Z,92.98
2023-01-26T14:34:29.844Z,93.12
2023-01-26T14:37:15.826Z,93.06
2023-01-26T14:39:45.802Z,93.26
2023-01-26T14:42:15.721Z,93.62
2023-01-26T14:44:43.034Z,93.77
2023-01-26T14:47:23.515Z,93.46
2023-01-26T14:50:12.005Z,93.49
2023-01-26T14:52:44.589Z,93.46
2023-01-26T14:55:26.509Z,93.41
2023-01-26T14:57:54.452Z,93.32
2023-01-26T15:00:35.857Z,93.19
2023-01-26T15:03:13.015Z,93.13
2023-01-26T15:05:43.465Z,93.10
2023-01-26T15:08:24.593Z,92.82
2023-01-26T15:11:16.357Z,92.83
2023-01-26T15:13:47.070Z,92.93
2023-01-26T15:16:20.684Z,93.28
2023-01-26T15:19:03.053Z,93.00
2023-01-26T15:21:35.102Z,93.12
2023-01-26T15:24:03.684Z,93.03
2023-01-26T15:26:36.014Z,93.05
2023-01-26T15:29:24.282Z,93.16
2023-01-26T15:31:56.785Z,93.12
2023-01-26T15:34:42.238Z,93.18
2023-01-26T15:37:33.700Z,93.32
2023-01-26T15:40:00.701Z,93.22
2023-01-26T15:42:32.948Z,93.43
2023-01-26T15:44:59.918Z,93.50
2023-01-26T15:47:26.915Z,93.56
2023-01-26T15:49:53.950Z,93.47
2023-01-26T15:52:30.492Z,93.94
2023-01-26T15:54:57.529Z,93.99
2023-01-26T15:57:24.446Z,93.95
2023-01-26T15:59:51.411Z,93.75
2023-01-26T16:02:21.049Z,93.63
2023-01-26T16:04:48.443Z,93.72
2023-01-26T16:07:18.552Z,93.98
2023-01-26T16:09:45.643Z,94.32
2023-01-26T16:12:30.567Z,94.38
2023-01-26T16:14:58.780Z,94.29
2023-01-26T16:17:26.057Z,94.32
2023-01-26T16:19:52.963Z,94.27
2023-01-26T16:22:19.998Z,94.24
2023-01-26T16:24:47.250Z,94.36
2023-01-26T16:27:14.228Z,94.22
2023-01-26T16:29:41.224Z,93.99
2023-01-26T16:32:29.658Z,93.99
2023-01-26T16:34:56.691Z,93.97
2023-01-26T16:37:23.624Z,93.79
2023-01-26T16:39:50.591Z,93.71
2023-01-26T16:42:21.210Z,93.62
2023-01-26T16:44:48.520Z,93.55
2023-01-26T16:47:15.451Z,93.31
2023-01-26T16:49:42.404Z,93.72
2023-01-26T16:52:10.188Z,93.76
2023-01-26T16:54:37.363Z,94.07
2023-01-26T16:57:04.566Z,94.23
2023-01-26T16:59:31.693Z,94.38
2023-01-26T17:01:58.777Z,94.51
2023-01-26T17:04:25.853Z,94.52
2023-01-26T17:06:52.874Z,94.54
2023-01-26T17:09:21.137Z,94.48
2023-01-26T17:11:48.115Z,94.74
2023-01-26T17:14:15.075Z,94.55
2023-01-26T17:16:42.138Z,94.75
2023-01-26T17:19:09.671Z,94.80
2023-01-26T17:21:37.171Z,94.98
2023-01-26T17:24:04.621Z,94.66
2023-01-26T17:26:31.716Z,94.57
2023-01-26T17:28:58.700Z,94.67
2023-01-26T17:31:25.822Z,94.88
2023-01-26T17:33:54.523Z,94.91
2023-01-26T17:36:21.564Z,94.75
2023-01-26T17:38:49.561Z,94.49
2023-01-26T17:41:17.518Z,94.77
2023-01-26T17:43:45.036Z,94.87
2023-01-26T17:46:17.974Z,94.70
2023-01-26T17:48:45.936Z,94.37
2023-01-26T17:51:19.038Z,94.35
2023-01-26T17:53:49.577Z,94.16
2023-01-26T17:56:19.453Z,94.30
2023-01-26T17:58:52.805Z,94.07
2023-01-26T18:01:22.342Z,94.14
2023-01-26T18:03:49.407Z,94.16
2023-01-26T18:06:16.861Z,94.11
2023-01-26T18:08:43.892Z,94.04
2023-01-26T18:11:14.572Z,93.90
2023-01-26T18:13:42.164Z,94.15
2023-01-26T18:16:13.282Z,93.76
2023-01-26T18:18:40.245Z,94.24
2023-01-26T18:21:18.962Z,94.22
2023-01-26T18:23:59.196Z,93.97
2023-01-26T18:26:30.033Z,94.54
2023-01-26T18:28:57.419Z,94.57
2023-01-26T18:31:35.536Z,94.58
2023-01-26T18:34:04.421Z,94.50
2023-01-26T18:36:32.521Z,94.61
2023-01-26T18:39:04.159Z,94.44
2023-01-26T18:41:31.601Z,94.17
2023-01-26T18:43:59.166Z,94.34
2023-01-26T18:46:28.218Z,94.30
2023-01-26T18:49:00.628Z,94.30
2023-01-26T18:51:30.394Z,94.34
2023-01-26T18:53:58.187Z,94.16
2023-01-26T18:56:25.269Z,94.30
2023-01-26T18:58:53.869Z,94.17
2023-01-26T19:01:22.340Z,94.35
2023-01-26T19:03:55.049Z,94.13
2023-01-26T19:06:24.459Z,94.31
2023-01-26T19:09:02.659Z,93.99
2023-01-26T19:11:33.528Z,94.09
2023-01-26T19:14:02.619Z,93.86
2023-01-26T19:16:30.874Z,94.33
2023-01-26T19:18:58.372Z,94.53
2023-01-26T19:21:27.545Z,94.60
2023-01-26T19:23:58.519Z,94.77
2023-01-26T19:26:30.807Z,94.80
2023-01-26T19:28:58.971Z,94.93
2023-01-26T19:31:28.152Z,94.86
2023-01-26T19:34:04.393Z,94.54
2023-01-26T19:36:34.072Z,94.61
2023-01-26T19:39:02.614Z,94.61
2023-01-26T19:41:29.691Z,94.58
2023-01-26T19:43:56.791Z,94.62
2023-01-26T19:46:23.834Z,94.80
2023-01-26T19:48:51.106Z,94.78
2023-01-26T19:51:26.774Z,94.58
2023-01-26T19:53:59.057Z,94.83
2023-01-26T19:56:32.959Z,94.88
2023-01-26T19:59:04.293Z,94.99
2023-01-26T20:01:32.715Z,95.17
2023-01-26T20:04:03.243Z,95.38
2023-01-26T20:06:33.380Z,95.39
2023-01-26T20:09:00.970Z,95.49
2023-01-26T20:11:29.721Z,95.42
2023-01-26T20:14:11.406Z,95.41
2023-01-26T20:16:38.661Z,95.71
2023-01-26T20:19:06.388Z,95.81
2023-01-26T20:21:33.867Z,95.69
2023-01-26T20:24:05.576Z,95.87
2023-01-26T20:26:33.226Z,95.74
2023-01-26T20:29:00.419Z,96.04
2023-01-26T20:31:27.813Z,96.09
2023-01-26T20:33:55.323Z,96.06
2023-01-26T20:36:27.219Z,96.29
2023-01-26T20:38:54.733Z,96.25
2023-01-26T20:41:30.094Z,96.35
2023-01-26T20:44:01.986Z,96.30
2023-01-26T20:46:36.800Z,96.33
2023-01-26T20:49:05.323Z,96.63
2023-01-26T20:51:35.945Z,96.49
2023-01-26T20:54:06.591Z,96.41
2023-01-26T20:56:35.512Z,96.55
2023-01-26T20:59:03.220Z,96.82
2023-01-26T21:01:33.655Z,96.92
2023-01-26T21:04:02.265Z,96.95
2023-01-26T21:06:29.998Z,97.08
2023-01-26T21:08:59.267Z,96.88
2023-01-26T21:11:30.412Z,96.98
2023-01-26T21:14:01.102Z,97.27
2023-01-26T21:16:29.148Z,97.25
2023-01-26T21:18:56.117Z,96.98
2023-01-26T21:21:23.158Z,97.31
2023-01-26T21:23:50.856Z,97.40
2023-01-26T21:26:22.336Z,97.25
2023-01-26T21:28:59.023Z,97.46
2023-01-26T21:31:30.467Z,97.34
2023-01-26T21:33:59.803Z,96.96
2023-01-26T21:36:30.957Z,97.18
2023-01-26T21:38:59.451Z,97.25
2023-01-26T21:41:48.207Z,97.15
2023-01-26T21:44:21.130Z,97.06
2023-01-26T21:46:52.279Z,97.14
2023-01-26T21:49:19.710Z,97.18
2023-01-26T21:52:05.235Z,97.05
2023-01-26T21:54:33.318Z,97.19
2023-01-26T21:57:02.198Z,97.22
2023-01-26T21:59:30.405Z,97.34
2023-01-26T22:01:58.532Z,97.29
2023-01-26T22:04:31.066Z,97.13
2023-01-26T22:06:58.370Z,97.42
2023-01-26T22:09:25.598Z,97.15
2023-01-26T22:11:52.877Z,97.31
2023-01-26T22:14:26.259Z,97.45
2023-01-26T22:16:53.534Z,97.37
2023-01-26T22:19:20.604Z,97.20
2023-01-26T22:21:47.602Z,97.38
2023-01-26T22:24:15.058Z,97.80
2023-01-26T22:26:42.576Z,97.77
2023-01-26T22:29:12.043Z,97.92
2023-01-26T22:31:39.080Z,98.17
2023-01-26T22:34:06.082Z,97.99
2023-01-26T22:36:33.483Z,98.01
2023-01-26T22:39:00.997Z,97.98
2023-01-26T22:41:30.419Z,97.84
2023-01-26T22:43:59.931Z,97.74
2023-01-26T22:46:29.310Z,97.61
2023-01-26T22:48:58.561Z,97.38
2023-01-26T22:51:29.441Z,97.56
2023-01-26T22:53:58.056Z,98.16
2023-01-26T22:56:26.492Z,98.17
2023-01-26T22:59:00.592Z,98.13
2023-01-26T23:01:33.094Z,98.11
2023-01-26T23:04:00.795Z,97.93
2023-01-26T23:06:28.393Z,98.08
2023-01-26T23:08:55.559Z,98.28
2023-01-26T23:11:26.749Z,98.47
2023-01-26T23:13:55.396Z,98.40
2023-01-26T23:16:23.758Z,98.42
2023-01-26T23:18:52.320Z,98.30
2023-01-26T23:21:20.189Z,98.27
2023-01-26T23:23:47.443Z,98.18
2023-01-26T23:26:14.667Z,97.63
2023-01-26T23:28:43.624Z,97.95
2023-01-26T23:31:13.081Z,97.89
2023-01-26T23:33:40.979Z,97.83
2023-01-26T23:36:09.870Z,97.89
2023-01-26T23:38:37.076Z,97.55
2023-01-26T23:41:08.714Z,97.60
2023-01-26T23:43:35.790Z,97.43
2023-01-26T23:46:03.321Z,97.75
2023-01-26T23:48:30.605Z,97.84
2023-01-26T23:51:00.006Z,97.66
2023-01-26T23:53:28.175Z,97.88
2023-01-26T23:55:56.039Z,97.82
2023-01-26T23:58:23.109Z,97.79
